Ευχαριστούμε που συμβάλλετε στη διατήρηση της σελίδας μας.

Thank you for your donations, it really helps to maintain the page.


Στατιστικά Καιρού & Άλλα..









Δείκτης Πυρκαγιάς (FWI)

Καστελόκαμπος Ρίον more information Kastelokampos Rion


Κάμερα Ρομανού more information Romanos Cam


προειδοποίηση για Καταιγίδες more information blitzortung!


προειδοποίηση για Βροχή more information rain snow radar


Επισκεφθείτε άλλες ιστοσελίδες καιρού μας:

Meteopatras.Eu in
Euweather NetworkMeteopatras.Eu in Euweather Network

Weather CloudWeather Cloud

PWS WeatherPWS Weather

Awekas NetWeather data from station Patra-Ketx

WunderGroundWeather data from station Patra-Ketx



Βροχή Από : 19-04-2021 05:00 Μέχρι : 18:00 προειδοποίηση για : Βροχή Επίπεδο : Κίτρινο info button
Καταιγίδες Από : 19-04-2021 05:00 Μέχρι : 18:00 προειδοποίηση για : Καταιγίδες Επίπεδο : Κίτρινο info button

Ιδιοκτησία και Επίβλεψη : Μουλάς Αντρέας

 Πάτρα, Ελλάδα - Γ.Πλάτος : 38°14'21" Β - Γ.Μήκος : 21°45'5" Α - Υψόμετρο : 56μ

Κοντινές Αναφορές METAR

   
LGRX - Araxos
Ενημερώθηκε: 19-04-2021 17:20
Μερικώς Νεφελώδης  
Μερικώς Νεφελώδης  
   Άνεμος: ΔΝΔ 22.2 km/h
Άνεμος: ΔΝΔ 22.2 km/h
Θερμοκρασία: 17°C
Σημείο Δρόσου: 8°C
Υγρασία: 56%
Βαρόμετρο: 1013 hPa
Σύννεφα: Μερικώς Νεφελώδης
Ορατότητα: More than 10 km
Λεπτομέρειες Σύννεφου: Κυρίως Αίθριος 2000 ft,
Μερικώς Νεφελώδης 3000 ft
LGRX 191420Z 24012KT 9999 FEW020TCU SCT030 17/08 Q1013
LGAD - Andravida
Ενημερώθηκε: 19-04-2021 17:20
Μερικώς Νεφελώδης  
Μερικώς Νεφελώδης  
   Άνεμος: Δύση 25.9 km/h
Άνεμος: Δύση 25.9 km/h
Θερμοκρασία: 18°C
Σημείο Δρόσου: 8°C
Υγρασία: 52%
Βαρόμετρο: 1014 hPa
Σύννεφα: Μερικώς Νεφελώδης
Ορατότητα: More than 10 km
Λεπτομέρειες Σύννεφου: Κυρίως Αίθριος 1800 ft,
Μερικώς Νεφελώδης 2500 ft
LGAD 191420Z 28014KT 9999 FEW018TCU SCT025 18/08 Q1014
LGZA - Zakinthos
Ενημερώθηκε: 19-04-2021 16:50
Μερικώς Νεφελώδης  
Μερικώς Νεφελώδης  
   Άνεμος: Δύση 24.1 km/h
Άνεμος: Δύση 24.1 km/h
Θερμοκρασία: 18°C
Σημείο Δρόσου: 10°C
Υγρασία: 60%
Βαρόμετρο: 1014 hPa
Σύννεφα: Μερικώς Νεφελώδης
Ορατότητα: More than 10 km
Λεπτομέρειες Σύννεφου: Μερικώς Νεφελώδης 1800 ft
LGZA 191350Z 27013KT 9999 SCT018 18/10 Q1014
LGKF - Kefallinia
Ενημερώθηκε: 19-04-2021 15:50
ΜΗ τρέχουσες
Μερικώς Νεφελώδης  
Μερικώς Νεφελώδης  
   Άνεμος: ΔΝΔ 20.4 km/h
Άνεμος: ΔΝΔ 20.4 km/h
Θερμοκρασία: 17°C
Σημείο Δρόσου: 11°C
Υγρασία: 68%
Βαρόμετρο: 1014 hPa
Σύννεφα: Μερικώς Νεφελώδης
Ορατότητα: More than 10 km
Λεπτομέρειες Σύννεφου: Κυρίως Αίθριος 1400 ft,
Μερικώς Νεφελώδης 1800 ft
LGKF 191250Z 25011KT 9999 FEW014 SCT018 17/11 Q1014
LGPZ - Preveza
Ενημερώθηκε: 19-04-2021 17:20
Κυρίως Συννεφιά  
Κυρίως Συννεφιά  
   Άνεμος: ποικίλλει 5.6 km/h
Άνεμος: ποικίλλει 5.6 km/h
Θερμοκρασία: 14°C
Σημείο Δρόσου: 9°C
Υγρασία: 72%
Βαρόμετρο: 1013 hPa
Σύννεφα: Κυρίως Συννεφιά
Ορατότητα: More than 10 km
Λεπτομέρειες Σύννεφου: Κυρίως Αίθριος 1800 ft,
Κυρίως Συννεφιά 2000 ft,
Κυρίως Συννεφιά 8000 ft
LGPZ 191420Z VRB03KT 9999 FEW018TCU BKN020 BKN080 14/09 Q1013
LGKL - Kalamata
Ενημερώθηκε: 19-04-2021 17:20
Μερικώς Νεφελώδης  
Μερικώς Νεφελώδης  
   Άνεμος: ΔΒΔ 16.7 km/h
Άνεμος: ΔΒΔ 16.7 km/h
Θερμοκρασία: 19°C
Σημείο Δρόσου: 4°C
Υγρασία: 37%
Βαρόμετρο: 1014 hPa
Σύννεφα: Μερικώς Νεφελώδης
Ορατότητα: More than 10 km
Λεπτομέρειες Σύννεφου: Μερικώς Νεφελώδης 3000 ft
LGKL 191420Z 29009KT 9999 SCT030 19/04 Q1014
LGKR - Kerkyra
Ενημερώθηκε: 19-04-2021 17:20
Κυρίως Συννεφιά  
Κυρίως Συννεφιά  
   Άνεμος: ποικίλλει Άπνοια
Άνεμος: ποικίλλει Άπνοια
Θερμοκρασία: 15°C
Σημείο Δρόσου: 9°C
Υγρασία: 68%
Βαρόμετρο: 1013 hPa
Σύννεφα: Κυρίως Συννεφιά
Ορατότητα: More than 10 km
Λεπτομέρειες Σύννεφου: Μερικώς Νεφελώδης 1500 ft,
Κυρίως Συννεφιά 3000 ft,
Κυρίως Συννεφιά 8000 ft
LGKR 191420Z /////KT 9999 SCT015TCU BKN030 BKN080 15/09 Q1013 NOSIG
LGIO - Iwannina
Ενημερώθηκε: 19-04-2021 17:20
Ελαφριά Βροχή  
Ελαφριά Βροχή  
   Άνεμος: ΝΑ 9.3 km/h
Άνεμος: ΝΑ 9.3 km/h
Θερμοκρασία: 10°C
Δείκτης Ψυχρότητας: 9°C
Σημείο Δρόσου: 7°C
Υγρασία: 82%
Βαρόμετρο: 1012 hPa
LGIO 191420Z AUTO 14005KT //// -RA ////// 10/07 Q1012 RE//
LGPZ - Leykada
Ενημερώθηκε: 19-04-2021 17:20
Κυρίως Συννεφιά  
Κυρίως Συννεφιά  
   Άνεμος: ποικίλλει 5.6 km/h
Άνεμος: ποικίλλει 5.6 km/h
Θερμοκρασία: 14°C
Σημείο Δρόσου: 9°C
Υγρασία: 72%
Βαρόμετρο: 1013 hPa
Σύννεφα: Κυρίως Συννεφιά
Ορατότητα: More than 10 km
Λεπτομέρειες Σύννεφου: Κυρίως Αίθριος 1800 ft,
Κυρίως Συννεφιά 2000 ft,
Κυρίως Συννεφιά 8000 ft
LGPZ 191420Z VRB03KT 9999 FEW018TCU BKN020 BKN080 14/09 Q1013
LGEL - Elefsina
Ενημερώθηκε: 19-04-2021 17:20
Κυρίως Αίθριος  
Κυρίως Αίθριος  
   Άνεμος: ΔΒΔ 18.5 km/h
Άνεμος: ΔΒΔ 18.5 km/h
Θερμοκρασία: 21°C
Σημείο Δρόσου: 4°C
Υγρασία: 33%
Βαρόμετρο: 1009 hPa
Σύννεφα: Κυρίως Αίθριος
Ορατότητα: More than 10 km
Λεπτομέρειες Σύννεφου: Κυρίως Αίθριος 2500 ft
LGEL 191420Z 29010KT 9999 FEW025 21/04 Q1009
LGKC - Kythira
Ενημερώθηκε: 19-04-2021 16:50
Μερικώς Νεφελώδης  
Μερικώς Νεφελώδης  
   Άνεμος: Δύση 37 km/h
Άνεμος: Δύση 37 km/h
Θερμοκρασία: 16°C
Σημείο Δρόσου: 12°C
Υγρασία: 77%
Βαρόμετρο: 1014 hPa
Σύννεφα: Μερικώς Νεφελώδης
Ορατότητα: More than 10 km
Λεπτομέρειες Σύννεφου: Μερικώς Νεφελώδης 2000 ft
LGKC 191350Z 26020KT 9999 SCT020 16/12 Q1014
LGIR - Hraklio
Ενημερώθηκε: 19-04-2021 17:20
Μερικώς Νεφελώδης  
Μερικώς Νεφελώδης  
   Άνεμος: ΔΒΔ 31.5 km/h
Άνεμος: ΔΒΔ 31.5 km/h
Θερμοκρασία: 18°C
Σημείο Δρόσου: 12°C
Υγρασία: 68%
Βαρόμετρο: 1013 hPa
Σύννεφα: Μερικώς Νεφελώδης
Ορατότητα: More than 10 km
Λεπτομέρειες Σύννεφου: Κυρίως Αίθριος 2500 ft,
Μερικώς Νεφελώδης 8000 ft
LGIR 191420Z 30017KT 9999 FEW025 SCT080 18/12 Q1013 NOSIG

Script developed by  Saratoga-weather.org Προσαρμοσμένος για το πρότυπο του  Weerstation Leuven

Μπορείτε να βρείτε πληροφορίες καιρού μας και σε:

European Weather Network

WeatherCloud

Weather Underground

Δύκτιο Σταθμών Ελλάδας

AWEKAS

HAMweather, WeatherForYou, PWS Weather

MeteoPatras.Eu